sensor_id;sensor_type;location;lat;lon;timestamp;temperature;humidity
18191;DHT22;47004;51.366;12.348;2022-07-21T00:00:58;26.90;40.20
18191;DHT22;47004;51.366;12.348;2022-07-21T00:03:00;26.80;40.50
18191;DHT22;47004;51.366;12.348;2022-07-21T00:05:02;26.80;41.00
18191;DHT22;47004;51.366;12.348;2022-07-21T00:07:04;26.70;41.70
18191;DHT22;47004;51.366;12.348;2022-07-21T00:09:06;26.60;41.70
18191;DHT22;47004;51.366;12.348;2022-07-21T00:11:08;26.60;42.00
18191;DHT22;47004;51.366;12.348;2022-07-21T00:13:10;26.50;42.30
18191;DHT22;47004;51.366;12.348;2022-07-21T00:15:14;26.50;42.40
18191;DHT22;47004;51.366;12.348;2022-07-21T00:17:18;26.50;42.60
18191;DHT22;47004;51.366;12.348;2022-07-21T00:19:20;26.40;42.60
18191;DHT22;47004;51.366;12.348;2022-07-21T00:21:22;26.40;43.20
18191;DHT22;47004;51.366;12.348;2022-07-21T00:23:24;26.30;43.50
18191;DHT22;47004;51.366;12.348;2022-07-21T00:25:26;26.30;43.70
18191;DHT22;47004;51.366;12.348;2022-07-21T00:27:28;26.20;44.20
18191;DHT22;47004;51.366;12.348;2022-07-21T00:29:30;26.20;44.50
18191;DHT22;47004;51.366;12.348;2022-07-21T00:31:32;26.20;45.00
18191;DHT22;47004;51.366;12.348;2022-07-21T00:33:35;26.20;45.30
18191;DHT22;47004;51.366;12.348;2022-07-21T00:35:37;26.10;47.30
18191;DHT22;47004;51.366;12.348;2022-07-21T00:37:40;26.10;47.80
18191;DHT22;47004;51.366;12.348;2022-07-21T00:39:42;26.10;48.40
18191;DHT22;47004;51.366;12.348;2022-07-21T00:41:44;26.10;51.50
18191;DHT22;47004;51.366;12.348;2022-07-21T00:43:46;26.10;54.80
18191;DHT22;47004;51.366;12.348;2022-07-21T00:45:51;26.10;56.80
18191;DHT22;47004;51.366;12.348;2022-07-21T00:47:53;26.10;58.00
18191;DHT22;47004;51.366;12.348;2022-07-21T00:49:57;26.10;59.50
18191;DHT22;47004;51.366;12.348;2022-07-21T00:52:00;26.10;60.70
18191;DHT22;47004;51.366;12.348;2022-07-21T00:54:02;26.00;61.10
18191;DHT22;47004;51.366;12.348;2022-07-21T00:56:05;26.00;61.20
18191;DHT22;47004;51.366;12.348;2022-07-21T00:58:07;26.00;61.10
18191;DHT22;47004;51.366;12.348;2022-07-21T01:00:12;26.00;62.90
18191;DHT22;47004;51.366;12.348;2022-07-21T01:02:15;26.00;62.40
18191;DHT22;47004;51.366;12.348;2022-07-21T01:04:17;26.00;63.90
18191;DHT22;47004;51.366;12.348;2022-07-21T01:06:21;26.00;64.60
18191;DHT22;47004;51.366;12.348;2022-07-21T01:08:25;25.90;64.80
18191;DHT22;47004;51.366;12.348;2022-07-21T01:10:29;25.90;67.60
18191;DHT22;47004;51.366;12.348;2022-07-21T01:12:32;25.80;68.00
18191;DHT22;47004;51.366;12.348;2022-07-21T01:14:34;25.80;67.40
18191;DHT22;47004;51.366;12.348;2022-07-21T01:16:36;25.80;68.70
18191;DHT22;47004;51.366;12.348;2022-07-21T01:18:38;25.70;70.90
18191;DHT22;47004;51.366;12.348;2022-07-21T01:20:41;25.70;69.80
18191;DHT22;47004;51.366;12.348;2022-07-21T01:22:49;25.70;70.10
18191;DHT22;47004;51.366;12.348;2022-07-21T01:24:51;25.60;72.40
18191;DHT22;47004;51.366;12.348;2022-07-21T01:26:53;25.60;71.70
18191;DHT22;47004;51.366;12.348;2022-07-21T01:28:56;25.50;72.00
18191;DHT22;47004;51.366;12.348;2022-07-21T01:30:58;25.50;73.60
18191;DHT22;47004;51.366;12.348;2022-07-21T01:33:01;25.40;74.10
18191;DHT22;47004;51.366;12.348;2022-07-21T01:35:04;25.40;74.30
18191;DHT22;47004;51.366;12.348;2022-07-21T01:37:07;25.30;75.70
18191;DHT22;47004;51.366;12.348;2022-07-21T01:39:10;25.30;76.80
18191;DHT22;47004;51.366;12.348;2022-07-21T01:41:34;25.20;77.90
18191;DHT22;47004;51.366;12.348;2022-07-21T01:43:36;25.20;77.90
18191;DHT22;47004;51.366;12.348;2022-07-21T01:45:39;25.10;78.30
18191;DHT22;47004;51.366;12.348;2022-07-21T01:47:41;25.10;77.80
18191;DHT22;47004;51.366;12.348;2022-07-21T01:49:43;25.00;78.60
18191;DHT22;47004;51.366;12.348;2022-07-21T01:51:46;25.00;78.60
18191;DHT22;47004;51.366;12.348;2022-07-21T01:53:51;25.00;76.50
18191;DHT22;47004;51.366;12.348;2022-07-21T01:55:54;25.00;76.10
18191;DHT22;47004;51.366;12.348;2022-07-21T01:57:56;24.90;75.90
18191;DHT22;47004;51.366;12.348;2022-07-21T01:59:58;24.90;74.80
18191;DHT22;47004;51.366;12.348;2022-07-21T02:02:00;24.90;74.10
18191;DHT22;47004;51.366;12.348;2022-07-21T02:04:04;24.80;74.10
18191;DHT22;47004;51.366;12.348;2022-07-21T02:06:06;24.80;74.10
18191;DHT22;47004;51.366;12.348;2022-07-21T02:08:09;24.80;73.30
18191;DHT22;47004;51.366;12.348;2022-07-21T02:10:11;24.80;73.60
18191;DHT22;47004;51.366;12.348;2022-07-21T02:12:14;24.70;73.00
18191;DHT22;47004;51.366;12.348;2022-07-21T02:14:16;24.70;73.20
18191;DHT22;47004;51.366;12.348;2022-07-21T02:16:18;24.70;72.90
18191;DHT22;47004;51.366;12.348;2022-07-21T02:18:20;24.60;72.80
18191;DHT22;47004;51.366;12.348;2022-07-21T02:20:23;24.60;73.00
18191;DHT22;47004;51.366;12.348;2022-07-21T02:22:25;24.60;72.50
18191;DHT22;47004;51.366;12.348;2022-07-21T02:24:27;24.50;72.10
18191;DHT22;47004;51.366;12.348;2022-07-21T02:26:29;24.50;71.70
18191;DHT22;47004;51.366;12.348;2022-07-21T02:28:32;24.50;71.40
18191;DHT22;47004;51.366;12.348;2022-07-21T02:30:34;24.50;70.50
18191;DHT22;47004;51.366;12.348;2022-07-21T02:32:36;24.50;71.00
18191;DHT22;47004;51.366;12.348;2022-07-21T02:34:38;24.50;70.90
18191;DHT22;47004;51.366;12.348;2022-07-21T02:36:40;24.40;71.20
18191;DHT22;47004;51.366;12.348;2022-07-21T02:38:42;24.40;71.70
18191;DHT22;47004;51.366;12.348;2022-07-21T02:40:44;24.40;71.20
18191;DHT22;47004;51.366;12.348;2022-07-21T02:42:46;24.30;71.00
18191;DHT22;47004;51.366;12.348;2022-07-21T02:44:49;24.30;70.80
18191;DHT22;47004;51.366;12.348;2022-07-21T02:46:51;24.30;70.90
18191;DHT22;47004;51.366;12.348;2022-07-21T02:48:55;24.30;70.50
18191;DHT22;47004;51.366;12.348;2022-07-21T02:50:57;24.30;70.40
18191;DHT22;47004;51.366;12.348;2022-07-21T02:53:01;24.20;71.20
18191;DHT22;47004;51.366;12.348;2022-07-21T02:55:04;24.20;71.20
18191;DHT22;47004;51.366;12.348;2022-07-21T02:57:06;24.20;71.30
18191;DHT22;47004;51.366;12.348;2022-07-21T02:59:07;24.20;71.60
18191;DHT22;47004;51.366;12.348;2022-07-21T03:01:11;24.20;71.80
18191;DHT22;47004;51.366;12.348;2022-07-21T03:03:13;24.10;72.00
18191;DHT22;47004;51.366;12.348;2022-07-21T03:05:15;24.10;72.10
18191;DHT22;47004;51.366;12.348;2022-07-21T03:07:19;24.10;71.80
18191;DHT22;47004;51.366;12.348;2022-07-21T03:09:21;24.10;72.10
18191;DHT22;47004;51.366;12.348;2022-07-21T03:11:23;24.00;71.60
18191;DHT22;47004;51.366;12.348;2022-07-21T03:13:25;24.00;72.40
18191;DHT22;47004;51.366;12.348;2022-07-21T03:15:27;24.00;72.40
18191;DHT22;47004;51.366;12.348;2022-07-21T03:17:31;24.00;72.10
18191;DHT22;47004;51.366;12.348;2022-07-21T03:19:33;23.90;72.40
18191;DHT22;47004;51.366;12.348;2022-07-21T03:21:35;23.90;72.40
18191;DHT22;47004;51.366;12.348;2022-07-21T03:23:37;23.90;71.70
18191;DHT22;47004;51.366;12.348;2022-07-21T03:25:39;23.90;72.20
18191;DHT22;47004;51.366;12.348;2022-07-21T03:27:41;23.90;72.00
18191;DHT22;47004;51.366;12.348;2022-07-21T03:29:43;23.90;71.70
18191;DHT22;47004;51.366;12.348;2022-07-21T03:31:45;23.90;72.20
18191;DHT22;47004;51.366;12.348;2022-07-21T03:33:49;23.90;72.10
18191;DHT22;47004;51.366;12.348;2022-07-21T03:35:51;23.80;72.00
18191;DHT22;47004;51.366;12.348;2022-07-21T03:37:55;23.80;72.20
18191;DHT22;47004;51.366;12.348;2022-07-21T03:39:57;23.80;72.90
18191;DHT22;47004;51.366;12.348;2022-07-21T03:41:59;23.80;73.30
18191;DHT22;47004;51.366;12.348;2022-07-21T03:44:01;23.80;74.30
18191;DHT22;47004;51.366;12.348;2022-07-21T03:46:04;23.80;74.40
18191;DHT22;47004;51.366;12.348;2022-07-21T03:48:06;23.80;74.70
18191;DHT22;47004;51.366;12.348;2022-07-21T03:50:11;23.80;77.60
18191;DHT22;47004;51.366;12.348;2022-07-21T03:52:13;23.70;79.30
18191;DHT22;47004;51.366;12.348;2022-07-21T03:54:18;23.70;81.80
18191;DHT22;47004;51.366;12.348;2022-07-21T03:56:19;23.60;84.60
18191;DHT22;47004;51.366;12.348;2022-07-21T03:58:24;23.60;86.60
18191;DHT22;47004;51.366;12.348;2022-07-21T04:00:30;23.60;89.10
18191;DHT22;47004;51.366;12.348;2022-07-21T04:02:33;23.60;88.10
18191;DHT22;47004;51.366;12.348;2022-07-21T04:04:35;23.60;89.50
18191;DHT22;47004;51.366;12.348;2022-07-21T04:06:38;23.50;90.10
18191;DHT22;47004;51.366;12.348;2022-07-21T04:08:40;23.50;90.50
18191;DHT22;47004;51.366;12.348;2022-07-21T04:10:43;23.50;91.30
18191;DHT22;47004;51.366;12.348;2022-07-21T04:12:45;23.50;91.70
18191;DHT22;47004;51.366;12.348;2022-07-21T04:14:47;23.50;91.50
18191;DHT22;47004;51.366;12.348;2022-07-21T04:16:49;23.50;91.70
18191;DHT22;47004;51.366;12.348;2022-07-21T04:18:51;23.50;92.30
18191;DHT22;47004;51.366;12.348;2022-07-21T04:20:53;23.50;92.10
18191;DHT22;47004;51.366;12.348;2022-07-21T04:22:57;23.50;92.30
18191;DHT22;47004;51.366;12.348;2022-07-21T04:24:58;23.50;91.90
18191;DHT22;47004;51.366;12.348;2022-07-21T04:27:01;23.60;92.60
18191;DHT22;47004;51.366;12.348;2022-07-21T04:29:03;23.60;92.40
18191;DHT22;47004;51.366;12.348;2022-07-21T04:31:05;23.60;92.40
18191;DHT22;47004;51.366;12.348;2022-07-21T04:33:07;23.60;92.00
18191;DHT22;47004;51.366;12.348;2022-07-21T04:35:09;23.70;92.20
18191;DHT22;47004;51.366;12.348;2022-07-21T04:37:12;23.70;92.00
18191;DHT22;47004;51.366;12.348;2022-07-21T04:39:15;23.80;91.70
18191;DHT22;47004;51.366;12.348;2022-07-21T04:41:17;23.80;91.50
18191;DHT22;47004;51.366;12.348;2022-07-21T04:43:19;23.90;91.00
18191;DHT22;47004;51.366;12.348;2022-07-21T04:45:21;23.90;91.20
18191;DHT22;47004;51.366;12.348;2022-07-21T04:47:23;23.90;91.30
18191;DHT22;47004;51.366;12.348;2022-07-21T04:49:25;23.90;90.90
18191;DHT22;47004;51.366;12.348;2022-07-21T04:51:27;23.90;90.40
18191;DHT22;47004;51.366;12.348;2022-07-21T04:53:29;24.00;90.70
18191;DHT22;47004;51.366;12.348;2022-07-21T04:55:32;24.00;90.40
18191;DHT22;47004;51.366;12.348;2022-07-21T04:57:37;24.00;90.00
18191;DHT22;47004;51.366;12.348;2022-07-21T04:59:39;24.00;90.20
18191;DHT22;47004;51.366;12.348;2022-07-21T05:01:41;24.10;90.60
18191;DHT22;47004;51.366;12.348;2022-07-21T05:03:43;24.10;89.80
18191;DHT22;47004;51.366;12.348;2022-07-21T05:05:45;24.20;89.80
18191;DHT22;47004;51.366;12.348;2022-07-21T05:07:47;24.20;90.10
18191;DHT22;47004;51.366;12.348;2022-07-21T05:09:52;24.20;89.30
18191;DHT22;47004;51.366;12.348;2022-07-21T05:11:55;24.30;89.80
18191;DHT22;47004;51.366;12.348;2022-07-21T05:13:57;24.30;89.70
18191;DHT22;47004;51.366;12.348;2022-07-21T05:15:59;24.30;89.10
18191;DHT22;47004;51.366;12.348;2022-07-21T05:18:01;24.30;89.20
18191;DHT22;47004;51.366;12.348;2022-07-21T05:20:04;24.30;88.40
18191;DHT22;47004;51.366;12.348;2022-07-21T05:22:06;24.30;99.90
18191;DHT22;47004;51.366;12.348;2022-07-21T05:24:08;23.70;99.90
18191;DHT22;47004;51.366;12.348;2022-07-21T05:26:10;23.50;99.90
18191;DHT22;47004;51.366;12.348;2022-07-21T05:28:14;23.30;99.90
18191;DHT22;47004;51.366;12.348;2022-07-21T05:30:16;23.20;99.90
18191;DHT22;47004;51.366;12.348;2022-07-21T05:32:19;23.10;99.90
18191;DHT22;47004;51.366;12.348;2022-07-21T05:34:21;23.10;99.90
18191;DHT22;47004;51.366;12.348;2022-07-21T05:36:23;23.20;99.90
18191;DHT22;47004;51.366;12.348;2022-07-21T05:38:28;23.10;99.90
18191;DHT22;47004;51.366;12.348;2022-07-21T05:40:30;23.10;99.90
18191;DHT22;47004;51.366;12.348;2022-07-21T05:42:32;23.10;99.90
18191;DHT22;47004;51.366;12.348;2022-07-21T05:44:38;23.20;99.90
18191;DHT22;47004;51.366;12.348;2022-07-21T05:46:40;23.20;99.90
18191;DHT22;47004;51.366;12.348;2022-07-21T05:48:42;23.10;99.90
18191;DHT22;47004;51.366;12.348;2022-07-21T05:50:44;23.20;99.90
18191;DHT22;47004;51.366;12.348;2022-07-21T05:52:46;23.20;99.90
18191;DHT22;47004;51.366;12.348;2022-07-21T05:54:50;23.20;99.90
18191;DHT22;47004;51.366;12.348;2022-07-21T05:56:52;23.20;99.90
18191;DHT22;47004;51.366;12.348;2022-07-21T05:58:54;23.20;99.90
18191;DHT22;47004;51.366;12.348;2022-07-21T06:00:57;23.30;99.90
18191;DHT22;47004;51.366;12.348;2022-07-21T06:03:13;23.20;99.90
18191;DHT22;47004;51.366;12.348;2022-07-21T06:05:16;23.30;99.90
18191;DHT22;47004;51.366;12.348;2022-07-21T06:07:18;23.30;99.90
18191;DHT22;47004;51.366;12.348;2022-07-21T06:09:20;23.30;99.90
18191;DHT22;47004;51.366;12.348;2022-07-21T06:11:22;23.30;99.90
18191;DHT22;47004;51.366;12.348;2022-07-21T06:13:24;23.40;99.90
18191;DHT22;47004;51.366;12.348;2022-07-21T06:15:26;23.40;99.90
18191;DHT22;47004;51.366;12.348;2022-07-21T06:17:29;23.50;99.90
18191;DHT22;47004;51.366;12.348;2022-07-21T06:19:33;23.50;99.90
18191;DHT22;47004;51.366;12.348;2022-07-21T06:21:35;23.50;99.90
18191;DHT22;47004;51.366;12.348;2022-07-21T06:23:37;23.50;99.90
18191;DHT22;47004;51.366;12.348;2022-07-21T06:25:39;23.50;99.90
18191;DHT22;47004;51.366;12.348;2022-07-21T06:27:41;23.50;99.90
18191;DHT22;47004;51.366;12.348;2022-07-21T06:29:46;23.60;99.90
18191;DHT22;47004;51.366;12.348;2022-07-21T06:31:47;23.60;99.90
18191;DHT22;47004;51.366;12.348;2022-07-21T06:33:51;23.60;99.90
18191;DHT22;47004;51.366;12.348;2022-07-21T06:35:53;23.70;99.90
18191;DHT22;47004;51.366;12.348;2022-07-21T06:37:55;23.70;99.90
18191;DHT22;47004;51.366;12.348;2022-07-21T06:39:56;23.80;99.90
18191;DHT22;47004;51.366;12.348;2022-07-21T06:41:59;23.90;99.90
18191;DHT22;47004;51.366;12.348;2022-07-21T06:44:01;24.00;99.90
18191;DHT22;47004;51.366;12.348;2022-07-21T06:46:06;24.00;99.90
18191;DHT22;47004;51.366;12.348;2022-07-21T06:48:08;24.20;99.90
18191;DHT22;47004;51.366;12.348;2022-07-21T06:50:12;24.20;99.90
18191;DHT22;47004;51.366;12.348;2022-07-21T06:52:14;24.30;99.90
18191;DHT22;47004;51.366;12.348;2022-07-21T06:54:16;24.40;99.90
18191;DHT22;47004;51.366;12.348;2022-07-21T06:56:18;24.50;99.90
18191;DHT22;47004;51.366;12.348;2022-07-21T06:58:22;24.50;99.90
18191;DHT22;47004;51.366;12.348;2022-07-21T07:00:25;24.60;99.90
18191;DHT22;47004;51.366;12.348;2022-07-21T07:02:26;24.60;99.90
18191;DHT22;47004;51.366;12.348;2022-07-21T07:04:28;24.70;99.90
18191;DHT22;47004;51.366;12.348;2022-07-21T07:06:32;24.80;99.90
18191;DHT22;47004;51.366;12.348;2022-07-21T07:08:34;24.90;99.90
18191;DHT22;47004;51.366;12.348;2022-07-21T07:10:37;24.90;99.90
18191;DHT22;47004;51.366;12.348;2022-07-21T07:12:39;25.00;99.90
18191;DHT22;47004;51.366;12.348;2022-07-21T07:14:41;25.10;99.90
18191;DHT22;47004;51.366;12.348;2022-07-21T07:16:43;25.10;99.90
18191;DHT22;47004;51.366;12.348;2022-07-21T07:18:45;25.20;99.90
18191;DHT22;47004;51.366;12.348;2022-07-21T07:20:48;25.20;99.60
18191;DHT22;47004;51.366;12.348;2022-07-21T07:22:52;25.30;98.90
18191;DHT22;47004;51.366;12.348;2022-07-21T07:24:54;25.40;99.80
18191;DHT22;47004;51.366;12.348;2022-07-21T07:26:56;25.40;97.80
18191;DHT22;47004;51.366;12.348;2022-07-21T07:28:58;25.40;97.40
18191;DHT22;47004;51.366;12.348;2022-07-21T07:31:00;25.40;96.30
18191;DHT22;47004;51.366;12.348;2022-07-21T07:33:02;25.40;96.90
18191;DHT22;47004;51.366;12.348;2022-07-21T07:35:04;25.40;97.30
18191;DHT22;47004;51.366;12.348;2022-07-21T07:37:07;25.40;96.60
18191;DHT22;47004;51.366;12.348;2022-07-21T07:39:10;25.40;96.20
18191;DHT22;47004;51.366;12.348;2022-07-21T07:41:12;25.40;96.50
18191;DHT22;47004;51.366;12.348;2022-07-21T07:43:14;25.30;96.40
18191;DHT22;47004;51.366;12.348;2022-07-21T07:45:17;25.30;97.20
18191;DHT22;47004;51.366;12.348;2022-07-21T07:47:19;25.40;96.50
18191;DHT22;47004;51.366;12.348;2022-07-21T07:49:21;25.40;96.20
18191;DHT22;47004;51.366;12.348;2022-07-21T07:51:23;25.40;95.90
18191;DHT22;47004;51.366;12.348;2022-07-21T07:53:25;25.40;96.00
18191;DHT22;47004;51.366;12.348;2022-07-21T07:55:28;25.50;94.70
18191;DHT22;47004;51.366;12.348;2022-07-21T07:57:30;25.50;95.10
18191;DHT22;47004;51.366;12.348;2022-07-21T07:59:32;25.50;95.00
18191;DHT22;47004;51.366;12.348;2022-07-21T08:01:34;25.60;94.90
18191;DHT22;47004;51.366;12.348;2022-07-21T08:03:36;25.70;95.90
18191;DHT22;47004;51.366;12.348;2022-07-21T08:05:38;25.70;93.80
18191;DHT22;47004;51.366;12.348;2022-07-21T08:07:40;25.80;93.90
18191;DHT22;47004;51.366;12.348;2022-07-21T08:09:42;25.80;92.80
18191;DHT22;47004;51.366;12.348;2022-07-21T08:11:45;26.00;92.90
18191;DHT22;47004;51.366;12.348;2022-07-21T08:13:48;26.10;93.20
18191;DHT22;47004;51.366;12.348;2022-07-21T08:15:53;26.20;93.50
18191;DHT22;47004;51.366;12.348;2022-07-21T08:17:54;26.30;91.90
18191;DHT22;47004;51.366;12.348;2022-07-21T08:19:56;26.30;91.20
18191;DHT22;47004;51.366;12.348;2022-07-21T08:21:58;26.40;90.40
18191;DHT22;47004;51.366;12.348;2022-07-21T08:24:03;26.40;90.30
18191;DHT22;47004;51.366;12.348;2022-07-21T08:26:05;26.30;91.30
18191;DHT22;47004;51.366;12.348;2022-07-21T08:28:09;26.20;91.60
18191;DHT22;47004;51.366;12.348;2022-07-21T08:30:12;26.10;94.20
18191;DHT22;47004;51.366;12.348;2022-07-21T08:32:13;26.10;93.80
18191;DHT22;47004;51.366;12.348;2022-07-21T08:34:15;26.00;95.10
18191;DHT22;47004;51.366;12.348;2022-07-21T08:36:18;25.90;95.10
18191;DHT22;47004;51.366;12.348;2022-07-21T08:38:20;25.80;95.10
18191;DHT22;47004;51.366;12.348;2022-07-21T08:40:24;25.80;96.10
18191;DHT22;47004;51.366;12.348;2022-07-21T08:42:26;25.90;96.10
18191;DHT22;47004;51.366;12.348;2022-07-21T08:44:30;25.90;96.70
18191;DHT22;47004;51.366;12.348;2022-07-21T08:46:33;25.90;96.80
18191;DHT22;47004;51.366;12.348;2022-07-21T08:48:36;25.90;96.50
18191;DHT22;47004;51.366;12.348;2022-07-21T08:50:39;25.80;96.50
18191;DHT22;47004;51.366;12.348;2022-07-21T08:52:41;25.80;97.40
18191;DHT22;47004;51.366;12.348;2022-07-21T08:54:43;25.80;97.20
18191;DHT22;47004;51.366;12.348;2022-07-21T08:56:45;25.60;98.30
18191;DHT22;47004;51.366;12.348;2022-07-21T08:58:47;25.40;98.80
18191;DHT22;47004;51.366;12.348;2022-07-21T09:00:50;25.30;99.70
18191;DHT22;47004;51.366;12.348;2022-07-21T09:03:08;25.20;99.90
18191;DHT22;47004;51.366;12.348;2022-07-21T09:05:10;25.20;99.90
18191;DHT22;47004;51.366;12.348;2022-07-21T09:07:12;25.10;99.90
18191;DHT22;47004;51.366;12.348;2022-07-21T09:09:18;25.00;99.90
18191;DHT22;47004;51.366;12.348;2022-07-21T09:11:23;25.00;99.90
18191;DHT22;47004;51.366;12.348;2022-07-21T09:13:25;24.90;99.90
18191;DHT22;47004;51.366;12.348;2022-07-21T09:15:29;24.80;99.90
18191;DHT22;47004;51.366;12.348;2022-07-21T09:17:34;24.70;99.90
18191;DHT22;47004;51.366;12.348;2022-07-21T09:19:37;24.60;99.90
18191;DHT22;47004;51.366;12.348;2022-07-21T09:21:41;24.40;99.90
18191;DHT22;47004;51.366;12.348;2022-07-21T09:23:43;24.30;99.90
18191;DHT22;47004;51.366;12.348;2022-07-21T09:25:48;24.30;99.90
18191;DHT22;47004;51.366;12.348;2022-07-21T09:28:09;24.20;99.90
18191;DHT22;47004;51.366;12.348;2022-07-21T09:30:11;24.00;99.90
18191;DHT22;47004;51.366;12.348;2022-07-21T09:32:18;23.90;99.90
18191;DHT22;47004;51.366;12.348;2022-07-21T09:34:21;23.70;99.90
18191;DHT22;47004;51.366;12.348;2022-07-21T09:36:23;23.50;99.90
18191;DHT22;47004;51.366;12.348;2022-07-21T09:38:26;23.30;99.90
18191;DHT22;47004;51.366;12.348;2022-07-21T09:40:28;22.90;99.90
18191;DHT22;47004;51.366;12.348;2022-07-21T09:42:32;22.70;99.90
18191;DHT22;47004;51.366;12.348;2022-07-21T09:44:36;22.40;99.90
18191;DHT22;47004;51.366;12.348;2022-07-21T09:46:37;22.10;99.90
18191;DHT22;47004;51.366;12.348;2022-07-21T09:48:40;22.00;99.90
18191;DHT22;47004;51.366;12.348;2022-07-21T09:50:44;21.90;99.90
18191;DHT22;47004;51.366;12.348;2022-07-21T09:52:46;21.80;99.90
18191;DHT22;47004;51.366;12.348;2022-07-21T09:54:50;21.70;99.90
18191;DHT22;47004;51.366;12.348;2022-07-21T09:56:53;21.60;99.90
18191;DHT22;47004;51.366;12.348;2022-07-21T09:58:57;21.60;99.90
18191;DHT22;47004;51.366;12.348;2022-07-21T10:00:59;21.60;99.90
18191;DHT22;47004;51.366;12.348;2022-07-21T10:03:01;21.50;99.90
18191;DHT22;47004;51.366;12.348;2022-07-21T10:05:07;21.60;99.90
18191;DHT22;47004;51.366;12.348;2022-07-21T10:07:11;21.60;99.90
18191;DHT22;47004;51.366;12.348;2022-07-21T10:09:13;21.70;99.90
18191;DHT22;47004;51.366;12.348;2022-07-21T10:11:15;21.80;99.90
18191;DHT22;47004;51.366;12.348;2022-07-21T10:13:18;21.90;99.90
18191;DHT22;47004;51.366;12.348;2022-07-21T10:15:19;22.00;99.90
18191;DHT22;47004;51.366;12.348;2022-07-21T10:17:24;22.10;99.90
18191;DHT22;47004;51.366;12.348;2022-07-21T10:19:28;22.20;99.90
18191;DHT22;47004;51.366;12.348;2022-07-21T10:21:38;22.30;99.90
18191;DHT22;47004;51.366;12.348;2022-07-21T10:23:43;22.40;99.90
18191;DHT22;47004;51.366;12.348;2022-07-21T10:25:45;22.40;99.90
18191;DHT22;47004;51.366;12.348;2022-07-21T10:28:12;22.50;99.90
18191;DHT22;47004;51.366;12.348;2022-07-21T10:30:15;22.60;99.90
18191;DHT22;47004;51.366;12.348;2022-07-21T10:32:21;22.70;99.90
18191;DHT22;47004;51.366;12.348;2022-07-21T10:34:34;22.90;99.90
18191;DHT22;47004;51.366;12.348;2022-07-21T10:36:46;23.00;99.90
18191;DHT22;47004;51.366;12.348;2022-07-21T10:39:12;23.20;99.90
18191;DHT22;47004;51.366;12.348;2022-07-21T10:41:36;23.30;99.90
18191;DHT22;47004;51.366;12.348;2022-07-21T10:43:41;23.40;99.90
18191;DHT22;47004;51.366;12.348;2022-07-21T10:45:45;23.50;99.90
18191;DHT22;47004;51.366;12.348;2022-07-21T10:47:49;23.60;99.90
18191;DHT22;47004;51.366;12.348;2022-07-21T10:49:53;23.70;99.90
18191;DHT22;47004;51.366;12.348;2022-07-21T10:51:56;23.90;99.90
18191;DHT22;47004;51.366;12.348;2022-07-21T10:54:22;24.00;99.90
18191;DHT22;47004;51.366;12.348;2022-07-21T10:56:26;24.30;99.90
18191;DHT22;47004;51.366;12.348;2022-07-21T10:58:29;24.40;99.90
18191;DHT22;47004;51.366;12.348;2022-07-21T11:00:34;24.60;99.90
18191;DHT22;47004;51.366;12.348;2022-07-21T11:02:37;24.70;99.90
18191;DHT22;47004;51.366;12.348;2022-07-21T11:05:06;24.90;99.90
18191;DHT22;47004;51.366;12.348;2022-07-21T11:07:08;25.00;99.90
18191;DHT22;47004;51.366;12.348;2022-07-21T11:09:14;25.10;99.90
18191;DHT22;47004;51.366;12.348;2022-07-21T11:11:19;25.30;99.90
18191;DHT22;47004;51.366;12.348;2022-07-21T11:13:22;25.40;99.90
18191;DHT22;47004;51.366;12.348;2022-07-21T11:15:46;25.50;99.90
18191;DHT22;47004;51.366;12.348;2022-07-21T11:17:49;25.70;99.90
18191;DHT22;47004;51.366;12.348;2022-07-21T11:19:51;25.80;99.90
18191;DHT22;47004;51.366;12.348;2022-07-21T11:21:54;26.00;99.90
18191;DHT22;47004;51.366;12.348;2022-07-21T11:23:56;26.10;99.90
18191;DHT22;47004;51.366;12.348;2022-07-21T11:25:58;26.20;99.90
18191;DHT22;47004;51.366;12.348;2022-07-21T11:28:01;26.30;99.90
18191;DHT22;47004;51.366;12.348;2022-07-21T11:30:06;26.40;99.90
18191;DHT22;47004;51.366;12.348;2022-07-21T11:32:09;26.40;99.90
18191;DHT22;47004;51.366;12.348;2022-07-21T11:34:12;26.50;99.90
18191;DHT22;47004;51.366;12.348;2022-07-21T11:36:25;26.60;99.90
18191;DHT22;47004;51.366;12.348;2022-07-21T11:38:27;26.70;99.90
18191;DHT22;47004;51.366;12.348;2022-07-21T11:40:30;26.90;99.90
18191;DHT22;47004;51.366;12.348;2022-07-21T11:42:32;27.00;99.90
18191;DHT22;47004;51.366;12.348;2022-07-21T11:44:35;27.10;99.90
18191;DHT22;47004;51.366;12.348;2022-07-21T11:46:48;27.40;99.90
18191;DHT22;47004;51.366;12.348;2022-07-21T11:49:01;27.60;99.90
18191;DHT22;47004;51.366;12.348;2022-07-21T11:51:04;27.70;99.50
18191;DHT22;47004;51.366;12.348;2022-07-21T11:53:06;27.90;99.20
18191;DHT22;47004;51.366;12.348;2022-07-21T11:55:10;28.10;97.70
18191;DHT22;47004;51.366;12.348;2022-07-21T11:57:14;28.20;95.30
18191;DHT22;47004;51.366;12.348;2022-07-21T11:59:16;28.30;95.30
18191;DHT22;47004;51.366;12.348;2022-07-21T12:01:19;28.40;93.80
18191;DHT22;47004;51.366;12.348;2022-07-21T12:03:21;28.50;91.50
18191;DHT22;47004;51.366;12.348;2022-07-21T12:05:23;28.50;91.90
18191;DHT22;47004;51.366;12.348;2022-07-21T12:07:27;28.60;91.80
18191;DHT22;47004;51.366;12.348;2022-07-21T12:09:29;28.70;91.40
18191;DHT22;47004;51.366;12.348;2022-07-21T12:11:35;28.70;91.70
18191;DHT22;47004;51.366;12.348;2022-07-21T12:13:58;28.80;92.00
18191;DHT22;47004;51.366;12.348;2022-07-21T12:16:01;28.90;92.80
18191;DHT22;47004;51.366;12.348;2022-07-21T12:18:06;29.00;92.30
18191;DHT22;47004;51.366;12.348;2022-07-21T12:20:09;29.10;92.00
18191;DHT22;47004;51.366;12.348;2022-07-21T12:22:11;29.10;92.60
18191;DHT22;47004;51.366;12.348;2022-07-21T12:24:13;29.20;92.10
18191;DHT22;47004;51.366;12.348;2022-07-21T12:26:22;29.40;92.60
18191;DHT22;47004;51.366;12.348;2022-07-21T12:28:41;29.60;92.70
18191;DHT22;47004;51.366;12.348;2022-07-21T12:30:46;29.90;90.60
18191;DHT22;47004;51.366;12.348;2022-07-21T12:32:49;30.20;87.20
18191;DHT22;47004;51.366;12.348;2022-07-21T12:34:53;30.50;83.70
18191;DHT22;47004;51.366;12.348;2022-07-21T12:36:55;30.80;79.80
18191;DHT22;47004;51.366;12.348;2022-07-21T12:39:16;31.20;76.00
18191;DHT22;47004;51.366;12.348;2022-07-21T12:41:44;31.50;70.50
18191;DHT22;47004;51.366;12.348;2022-07-21T12:43:53;31.70;63.90
18191;DHT22;47004;51.366;12.348;2022-07-21T12:45:57;31.90;61.30
18191;DHT22;47004;51.366;12.348;2022-07-21T12:48:05;32.20;60.30